createdAt,value
2017-12-20T00:00:32.426Z,102525.14
2017-12-20T00:03:00.766Z,102524.73
2017-12-20T00:05:29.122Z,102536.02
2017-12-20T00:07:57.498Z,102525.92
2017-12-20T00:10:25.829Z,102521.73
2017-12-20T00:12:54.247Z,102536.22
2017-12-20T00:15:22.571Z,102540.41
2017-12-20T00:17:51.675Z,102534.21
2017-12-20T00:20:20.038Z,102537.15
2017-12-20T00:22:49.134Z,102530.92
2017-12-20T00:25:18.287Z,102533.38
2017-12-20T00:27:46.618Z,102528.63
2017-12-20T00:30:14.980Z,102531.99
2017-12-20T00:32:44.126Z,102534.48
2017-12-20T00:35:13.232Z,102535.00
2017-12-20T00:37:41.606Z,102542.97
2017-12-20T00:40:09.947Z,102544.31
2017-12-20T00:42:38.298Z,102547.27
2017-12-20T00:45:06.662Z,102544.66
2017-12-20T00:47:35.814Z,102537.02
2017-12-20T00:50:04.201Z,102536.72
2017-12-20T00:52:32.524Z,102547.63
2017-12-20T00:55:00.883Z,102540.86
2017-12-20T00:57:29.222Z,102541.41
2017-12-20T00:59:57.593Z,102540.69
2017-12-20T01:02:25.974Z,102544.76
2017-12-20T01:04:54.314Z,102535.79
2017-12-20T01:07:22.714Z,102542.58
2017-12-20T01:09:51.841Z,102537.13
2017-12-20T01:12:20.218Z,102535.72
2017-12-20T01:14:48.602Z,102533.45
2017-12-20T01:17:16.946Z,102530.58
2017-12-20T01:19:45.294Z,102529.88
2017-12-20T01:22:13.670Z,102525.21
2017-12-20T01:24:42.012Z,102525.31
2017-12-20T01:27:11.326Z,102529.92
2017-12-20T01:29:39.697Z,102535.59
2017-12-20T01:32:08.082Z,102533.70
2017-12-20T01:34:36.426Z,102531.95
2017-12-20T01:37:04.766Z,102534.85
2017-12-20T01:39:33.137Z,102536.68
2017-12-20T01:42:01.519Z,102534.48
2017-12-20T01:44:29.866Z,102531.58
2017-12-20T01:46:58.283Z,102525.60
2017-12-20T01:49:26.662Z,102528.25
2017-12-20T01:51:55.786Z,102525.19
2017-12-20T01:54:24.174Z,102527.52
2017-12-20T01:56:52.506Z,102534.38
2017-12-20T01:59:20.873Z,102535.34
2017-12-20T02:01:49.230Z,102535.66
2017-12-20T02:04:17.558Z,102531.70
2017-12-20T02:06:46.689Z,102538.60
2017-12-20T02:09:15.075Z,102536.29
2017-12-20T02:11:43.450Z,102538.11
2017-12-20T02:14:11.834Z,102541.85
2017-12-20T02:16:40.208Z,102546.88
2017-12-20T02:19:08.557Z,102544.67
2017-12-20T02:21:36.943Z,102549.19
2017-12-20T02:24:05.319Z,102539.06
2017-12-20T02:26:33.650Z,102543.58
2017-12-20T02:29:02.008Z,102542.42
2017-12-20T02:31:30.394Z,102548.44
2017-12-20T02:33:58.742Z,102552.14
2017-12-20T02:36:27.884Z,102559.01
2017-12-20T02:38:56.322Z,102551.47
2017-12-20T02:41:24.693Z,102550.61
2017-12-20T02:43:53.806Z,102550.80
2017-12-20T02:46:22.174Z,102549.61
2017-12-20T02:48:50.540Z,102548.08
2017-12-20T02:51:18.929Z,102556.33
2017-12-20T02:53:47.317Z,102563.08
2017-12-20T02:56:15.654Z,102560.66
2017-12-20T02:58:44.821Z,102562.86
2017-12-20T03:01:13.166Z,102558.49
2017-12-20T03:03:41.529Z,102558.08
2017-12-20T03:06:09.890Z,102562.82
2017-12-20T03:08:38.284Z,102561.14
2017-12-20T03:11:06.662Z,102569.37
2017-12-20T03:13:35.029Z,102564.56
2017-12-20T03:16:04.138Z,102558.64
2017-12-20T03:18:32.549Z,102563.83
2017-12-20T03:21:00.889Z,102561.59
2017-12-20T03:23:29.236Z,102563.98
2017-12-20T03:25:57.622Z,102560.47
2017-12-20T03:28:26.781Z,102557.78
2017-12-20T03:30:55.130Z,102556.88
2017-12-20T03:33:23.473Z,102553.27
2017-12-20T03:35:52.615Z,102566.73
2017-12-20T03:38:20.951Z,102570.09
2017-12-20T03:40:50.119Z,102571.59
2017-12-20T03:43:18.449Z,102571.58
2017-12-20T03:45:46.860Z,102569.39
2017-12-20T03:48:15.237Z,102572.22
2017-12-20T03:50:43.620Z,102568.38
2017-12-20T03:53:11.988Z,102572.19
2017-12-20T03:55:40.333Z,102566.18
2017-12-20T03:58:08.726Z,102583.68
2017-12-20T04:00:37.064Z,102574.42
2017-12-20T04:03:06.250Z,102565.73
2017-12-20T04:05:34.592Z,102569.61
2017-12-20T04:08:02.928Z,102574.34
2017-12-20T04:10:31.321Z,102581.08
2017-12-20T04:13:00.488Z,102575.76
2017-12-20T04:15:29.609Z,102578.81
2017-12-20T04:17:57.969Z,102589.30
2017-12-20T04:20:27.069Z,102584.59
2017-12-20T04:22:55.442Z,102583.77
2017-12-20T04:25:23.835Z,102581.63
2017-12-20T04:27:52.180Z,102585.73
2017-12-20T04:30:20.525Z,102574.09
2017-12-20T04:32:48.912Z,102576.77
2017-12-20T04:35:17.261Z,102573.27
2017-12-20T04:37:45.620Z,102576.55
2017-12-20T04:40:13.963Z,102569.28
2017-12-20T04:42:42.336Z,102567.04
2017-12-20T04:45:10.700Z,102571.07
2017-12-20T04:47:39.078Z,102575.70
2017-12-20T04:50:07.449Z,102581.30
2017-12-20T04:52:35.824Z,102577.41
2017-12-20T04:55:04.172Z,102581.07
2017-12-20T04:57:32.548Z,102569.42
2017-12-20T05:00:00.920Z,102566.25
2017-12-20T05:02:29.257Z,102571.73
2017-12-20T05:04:57.636Z,102571.81
2017-12-20T05:07:25.988Z,102581.67
2017-12-20T05:09:54.371Z,102580.81
2017-12-20T05:12:22.726Z,102580.66
2017-12-20T05:14:51.060Z,102584.05
2017-12-20T05:17:19.439Z,102582.34
2017-12-20T05:19:47.777Z,102581.86
2017-12-20T05:22:16.117Z,102588.31
2017-12-20T05:24:44.500Z,102601.21
2017-12-20T05:27:12.855Z,102604.55
2017-12-20T05:29:42.011Z,102598.95
2017-12-20T05:32:10.392Z,102607.90
2017-12-20T05:34:38.759Z,102617.31
2017-12-20T05:37:07.132Z,102614.81
2017-12-20T05:39:35.452Z,102605.06
2017-12-20T05:42:03.837Z,102603.23
2017-12-20T05:44:32.948Z,102601.92
2017-12-20T05:47:01.363Z,102610.77
2017-12-20T05:49:29.703Z,102618.94
2017-12-20T05:51:58.792Z,102620.63
2017-12-20T05:54:27.927Z,102621.34
2017-12-20T05:56:56.258Z,102619.02
2017-12-20T05:59:25.407Z,102615.61
2017-12-20T06:01:53.752Z,102615.16
2017-12-20T06:04:22.127Z,102620.02
2017-12-20T06:06:51.260Z,102627.59
2017-12-20T06:09:19.599Z,102629.54
2017-12-20T06:11:47.996Z,102638.35
2017-12-20T06:14:16.339Z,102643.69
2017-12-20T06:16:44.679Z,102636.63
2017-12-20T06:19:13.075Z,102638.70
2017-12-20T06:21:41.399Z,102629.60
2017-12-20T06:24:10.579Z,102633.24
2017-12-20T06:26:38.931Z,102633.41
2017-12-20T06:29:07.303Z,102640.28
2017-12-20T06:31:36.855Z,102643.44
2017-12-20T06:34:05.811Z,102642.02
2017-12-20T06:36:34.139Z,102645.59
2017-12-20T06:39:02.563Z,102646.45
2017-12-20T06:41:30.963Z,102637.92
2017-12-20T06:44:00.063Z,102635.02
2017-12-20T06:46:29.203Z,102639.87
2017-12-20T06:48:57.535Z,102637.15
2017-12-20T06:51:26.671Z,102639.34
2017-12-20T06:53:55.051Z,102648.10
2017-12-20T06:56:23.398Z,102640.34
2017-12-20T06:58:52.523Z,102633.91
2017-12-20T07:01:20.875Z,102641.13
2017-12-20T07:03:49.363Z,102640.03
2017-12-20T07:06:17.691Z,102636.19
2017-12-20T07:08:46.055Z,102637.83
2017-12-20T07:11:14.387Z,102644.20
2017-12-20T07:13:42.767Z,102638.97
2017-12-20T07:16:11.106Z,102641.87
2017-12-20T07:18:39.495Z,102643.41
2017-12-20T07:21:08.641Z,102655.00
2017-12-20T07:23:36.989Z,102661.44
2017-12-20T07:26:05.363Z,102677.11
2017-12-20T07:28:34.481Z,102673.47
2017-12-20T07:31:02.850Z,102671.16
2017-12-20T07:33:31.190Z,102666.63
2017-12-20T07:35:59.593Z,102666.56
2017-12-20T07:38:28.713Z,102670.22
2017-12-20T07:40:57.863Z,102668.41
2017-12-20T07:43:26.223Z,102669.58
2017-12-20T07:45:54.547Z,102666.38
2017-12-20T07:48:22.931Z,102672.89
2017-12-20T07:50:51.275Z,102672.38
2017-12-20T07:53:19.655Z,102675.04
2017-12-20T07:55:47.999Z,102673.70
2017-12-20T07:58:16.355Z,102679.89
2017-12-20T08:00:44.750Z,102685.57
2017-12-20T08:03:13.099Z,102685.82
2017-12-20T08:05:41.483Z,102689.20
2017-12-20T08:08:09.863Z,102693.59
2017-12-20T08:10:38.262Z,102691.14
2017-12-20T08:13:06.591Z,102693.73
2017-12-20T08:15:35.763Z,102697.13
2017-12-20T08:18:04.406Z,102701.06
2017-12-20T08:20:32.903Z,102703.45
2017-12-20T08:23:01.300Z,102695.55
2017-12-20T08:25:29.760Z,102689.98
2017-12-20T08:27:58.180Z,102701.30
2017-12-20T08:30:26.579Z,102707.63
2017-12-20T08:32:54.904Z,102714.37
2017-12-20T08:35:23.282Z,102715.36
2017-12-20T08:37:51.619Z,102722.36
2017-12-20T08:40:20.171Z,102729.69
2017-12-20T08:42:49.334Z,102727.61
2017-12-20T08:45:17.671Z,102729.53
2017-12-20T08:47:46.116Z,102729.13
2017-12-20T08:50:15.467Z,102734.41
2017-12-20T08:52:43.854Z,102737.04
2017-12-20T08:55:12.211Z,102739.32
2017-12-20T08:57:40.687Z,102742.13
2017-12-20T09:00:09.127Z,102741.23
2017-12-20T09:02:37.591Z,102738.58
2017-12-20T09:05:06.083Z,102739.59
2017-12-20T09:07:34.523Z,102736.52
2017-12-20T09:10:02.895Z,102736.14
2017-12-20T09:12:31.230Z,102730.09
2017-12-20T09:14:59.626Z,102736.14
2017-12-20T09:17:28.742Z,102735.36
2017-12-20T09:19:57.919Z,102737.09
2017-12-20T09:22:26.315Z,102733.38
2017-12-20T09:24:54.674Z,102739.72
2017-12-20T09:27:23.829Z,102737.09
2017-12-20T09:29:52.228Z,102737.30
2017-12-20T09:32:20.579Z,102738.69
2017-12-20T09:34:48.985Z,102746.95
2017-12-20T09:37:17.498Z,102745.78
2017-12-20T09:39:45.962Z,102741.34
2017-12-20T09:42:14.402Z,102741.97
2017-12-20T09:44:42.776Z,102738.20
2017-12-20T09:47:11.102Z,102741.41
2017-12-20T09:49:40.236Z,102733.17
2017-12-20T09:52:08.599Z,102732.02
2017-12-20T09:54:37.047Z,102730.32
2017-12-20T09:57:05.413Z,102728.37
2017-12-20T09:59:33.902Z,102724.50
2017-12-20T10:02:02.262Z,102720.72
2017-12-20T10:04:30.607Z,102718.33
2017-12-20T10:06:58.998Z,102721.63
2017-12-20T10:09:27.426Z,102719.20
2017-12-20T10:11:56.634Z,102721.47
2017-12-20T10:14:24.978Z,102722.77
2017-12-20T10:16:53.354Z,102721.36
2017-12-20T10:19:21.683Z,102706.28
2017-12-20T10:21:50.010Z,102720.83
2017-12-20T10:24:18.460Z,102712.66
2017-12-20T10:26:46.816Z,102718.44
2017-12-20T10:29:15.156Z,102720.17
2017-12-20T10:31:43.638Z,102722.20
2017-12-20T10:34:12.082Z,102716.08
2017-12-20T10:36:40.628Z,102720.45
2017-12-20T10:39:09.784Z,102718.73
2017-12-20T10:41:38.154Z,102715.87
2017-12-20T10:44:06.757Z,102716.89
2017-12-20T10:46:35.261Z,102716.44
2017-12-20T10:49:04.398Z,102709.09
2017-12-20T10:51:32.741Z,102695.67
2017-12-20T10:54:01.245Z,102697.83
2017-12-20T10:56:30.469Z,102699.80
2017-12-20T10:58:58.853Z,102690.31
2017-12-20T11:01:27.226Z,102691.88
2017-12-20T11:03:55.719Z,102686.67
2017-12-20T11:06:24.086Z,102693.78
2017-12-20T11:08:52.456Z,102690.81
2017-12-20T11:11:20.852Z,102689.08
2017-12-20T11:13:49.327Z,102685.52
2017-12-20T11:16:17.834Z,102685.31
2017-12-20T11:18:46.945Z,102673.94
2017-12-20T11:21:16.130Z,102671.62
2017-12-20T11:23:45.533Z,102676.88
2017-12-20T11:26:14.843Z,102677.46
2017-12-20T11:28:43.969Z,102670.14
2017-12-20T11:31:12.381Z,102671.95
2017-12-20T11:33:40.715Z,102673.14
2017-12-20T11:36:09.080Z,102668.73
2017-12-20T11:38:37.468Z,102663.02
2017-12-20T11:41:05.812Z,102658.48
2017-12-20T11:43:34.202Z,102658.23
2017-12-20T11:46:03.385Z,102654.70
2017-12-20T11:48:31.992Z,102651.17
2017-12-20T11:51:00.489Z,102648.57
2017-12-20T11:53:30.832Z,102642.00
2017-12-20T11:55:59.665Z,102641.22
2017-12-20T11:58:28.953Z,102639.47
2017-12-20T12:00:57.377Z,102643.02
2017-12-20T12:03:25.901Z,102645.17
2017-12-20T12:05:54.449Z,102640.42
2017-12-20T12:08:22.845Z,102632.83
2017-12-20T12:10:51.233Z,102636.40
2017-12-20T12:13:19.832Z,102634.75
2017-12-20T12:15:48.272Z,102622.34
2017-12-20T12:18:16.729Z,102631.88
2017-12-20T12:20:45.300Z,102630.20
2017-12-20T12:23:13.765Z,102628.97
2017-12-20T12:25:44.609Z,102628.19
2017-12-20T12:28:13.176Z,102625.16
2017-12-20T12:30:41.628Z,102613.94
2017-12-20T12:33:10.077Z,102616.80
2017-12-20T12:35:38.595Z,102616.67
2017-12-20T12:38:08.409Z,102619.73
2017-12-20T12:40:37.648Z,102615.92
2017-12-20T12:43:07.381Z,102614.22
2017-12-20T12:45:35.780Z,102610.02
2017-12-20T12:48:04.168Z,102611.00
2017-12-20T12:50:32.565Z,102619.75
2017-12-20T12:53:00.960Z,102620.34
2017-12-20T12:55:30.076Z,102619.21
2017-12-20T12:57:59.232Z,102611.73
2017-12-20T13:00:27.612Z,102603.89
2017-12-20T13:02:55.968Z,102602.41
2017-12-20T13:05:24.368Z,102591.47
2017-12-20T13:07:52.720Z,102601.21
2017-12-20T13:10:21.084Z,102601.06
2017-12-20T13:12:49.452Z,102594.98
2017-12-20T13:15:17.828Z,102603.36
2017-12-20T13:17:46.267Z,102607.38
2017-12-20T13:20:14.652Z,102604.03
2017-12-20T13:22:42.999Z,102608.45
2017-12-20T13:25:11.380Z,102618.80
2017-12-20T13:27:39.728Z,102622.27
2017-12-20T13:30:08.128Z,102618.52
2017-12-20T13:32:36.597Z,102622.75
2017-12-20T13:35:05.672Z,102622.09
2017-12-20T13:37:34.092Z,102626.95
2017-12-20T13:40:02.552Z,102630.50
2017-12-20T13:42:31.148Z,102629.55
2017-12-20T13:44:59.676Z,102632.26
2017-12-20T13:47:28.852Z,102630.73
2017-12-20T13:49:57.268Z,102628.33
2017-12-20T13:52:25.647Z,102624.16
2017-12-20T13:54:53.999Z,102620.45
2017-12-20T13:57:23.121Z,102621.77
2017-12-20T13:59:51.509Z,102614.77
2017-12-20T14:02:19.888Z,102622.78
2017-12-20T14:04:48.315Z,102619.02
2017-12-20T14:07:16.715Z,102613.64
2017-12-20T14:09:46.484Z,102617.48
2017-12-20T14:12:14.845Z,102622.48
2017-12-20T14:14:43.240Z,102624.65
2017-12-20T14:17:11.603Z,102624.05
2017-12-20T14:19:40.351Z,102619.14
2017-12-20T14:22:08.708Z,102615.55
2017-12-20T14:24:37.051Z,102625.95
2017-12-20T14:27:05.424Z,102626.27
2017-12-20T14:29:33.764Z,102627.33
2017-12-20T14:32:02.156Z,102620.81
2017-12-20T14:34:30.508Z,102625.12
2017-12-20T14:36:58.848Z,102634.42
2017-12-20T14:39:27.235Z,102633.66
2017-12-20T14:41:55.580Z,102632.95
2017-12-20T14:44:24.850Z,102635.86
2017-12-20T14:46:53.995Z,102629.50
2017-12-20T14:49:22.384Z,102634.55
2017-12-20T14:51:50.743Z,102628.23
2017-12-20T14:54:19.175Z,102632.16
2017-12-20T14:56:48.283Z,102633.11
2017-12-20T14:59:17.430Z,102629.63
2017-12-20T15:01:45.816Z,102626.75
2017-12-20T15:04:14.251Z,102622.83
2017-12-20T15:06:43.831Z,102624.42
2017-12-20T15:09:12.939Z,102626.66
2017-12-20T15:11:42.107Z,102621.03
2017-12-20T15:14:10.451Z,102625.73
2017-12-20T15:16:38.836Z,102621.36
2017-12-20T15:19:07.251Z,102618.80
2017-12-20T15:21:35.592Z,102616.59
2017-12-20T15:24:03.943Z,102618.41
2017-12-20T15:26:32.394Z,102617.84
2017-12-20T15:29:00.798Z,102619.30
2017-12-20T15:31:29.152Z,102620.78
2017-12-20T15:33:57.631Z,102619.50
2017-12-20T15:36:26.751Z,102616.55
2017-12-20T15:38:55.127Z,102613.03
2017-12-20T15:41:23.803Z,102610.13
2017-12-20T15:43:52.268Z,102608.73
2017-12-20T15:46:20.635Z,102608.72
2017-12-20T15:48:49.357Z,102608.81
2017-12-20T15:51:17.732Z,102610.36
2017-12-20T15:53:46.169Z,102610.84
2017-12-20T15:56:14.563Z,102612.00
2017-12-20T15:58:42.944Z,102609.12
2017-12-20T16:01:11.356Z,102606.44
2017-12-20T16:03:39.823Z,102616.72
2017-12-20T16:06:08.987Z,102605.83
2017-12-20T16:08:37.366Z,102611.28
2017-12-20T16:11:05.787Z,102605.19
2017-12-20T16:13:34.216Z,102609.63
2017-12-20T16:16:02.630Z,102612.22
2017-12-20T16:18:31.027Z,102604.96
2017-12-20T16:20:59.423Z,102613.81
2017-12-20T16:23:27.812Z,102613.24
2017-12-20T16:25:56.190Z,102618.48
2017-12-20T16:28:24.584Z,102617.04
2017-12-20T16:30:52.937Z,102625.67
2017-12-20T16:33:23.111Z,102623.14
2017-12-20T16:35:51.518Z,102622.34
2017-12-20T16:38:19.929Z,102626.23
2017-12-20T16:40:48.294Z,102627.45
2017-12-20T16:43:18.946Z,102630.97
2017-12-20T16:45:47.328Z,102636.05
2017-12-20T16:48:15.693Z,102634.76
2017-12-20T16:50:44.098Z,102639.71
2017-12-20T16:53:12.522Z,102638.14
2017-12-20T16:55:40.903Z,102636.70
2017-12-20T16:58:09.307Z,102631.41
2017-12-20T17:00:37.676Z,102632.34
2017-12-20T17:03:06.483Z,102627.97
2017-12-20T17:05:35.918Z,102621.77
2017-12-20T17:08:05.130Z,102622.77
2017-12-20T17:10:34.335Z,102622.38
2017-12-20T17:13:02.756Z,102614.88
2017-12-20T17:15:31.443Z,102613.66
2017-12-20T17:17:59.811Z,102607.58
2017-12-20T17:20:28.298Z,102603.00
2017-12-20T17:22:57.476Z,102602.42
2017-12-20T17:25:26.634Z,102597.19
2017-12-20T17:27:55.804Z,102562.63
2017-12-20T17:30:25.156Z,102601.07
2017-12-20T17:32:58.295Z,102595.76
2017-12-20T17:35:28.526Z,102592.00
2017-12-20T17:38:01.552Z,102590.53
2017-12-20T17:40:30.645Z,102598.73
2017-12-20T17:42:59.111Z,102595.67
2017-12-20T17:45:29.550Z,102602.59
2017-12-20T17:47:58.970Z,102598.26
2017-12-20T17:50:28.433Z,102598.08
2017-12-20T17:52:57.709Z,102600.53
2017-12-20T17:55:26.885Z,102590.41
2017-12-20T17:57:55.315Z,102593.64
2017-12-20T18:00:23.811Z,102597.91
2017-12-20T18:02:52.298Z,102591.72
2017-12-20T18:05:20.663Z,102592.23
2017-12-20T18:07:50.196Z,102595.39
2017-12-20T18:10:19.164Z,102605.80
2017-12-20T18:12:48.366Z,102602.69
2017-12-20T18:15:16.755Z,102604.86
2017-12-20T18:17:45.534Z,102603.91
2017-12-20T18:20:14.046Z,102615.81
2017-12-20T18:22:42.414Z,102623.94
2017-12-20T18:25:11.602Z,102631.96
2017-12-20T18:27:40.026Z,102625.59
2017-12-20T18:30:08.527Z,102631.38
2017-12-20T18:32:37.001Z,102627.48
2017-12-20T18:35:05.526Z,102627.89
2017-12-20T18:37:35.286Z,102631.23
2017-12-20T18:40:05.218Z,102627.55
2017-12-20T18:42:35.473Z,102624.48
2017-12-20T18:45:05.177Z,102618.71
2017-12-20T18:47:37.181Z,102584.08
2017-12-20T18:50:09.229Z,102618.97
2017-12-20T18:52:39.488Z,102592.56
2017-12-20T18:55:08.590Z,102610.21
2017-12-20T18:57:37.690Z,102614.93
2017-12-20T19:00:06.869Z,102613.79
2017-12-20T19:02:35.478Z,102616.57
2017-12-20T19:05:05.158Z,102608.78
2017-12-20T19:07:33.779Z,102615.55
2017-12-20T19:10:02.203Z,102606.45
2017-12-20T19:12:30.635Z,102612.66
2017-12-20T19:14:59.533Z,102605.50
2017-12-20T19:17:30.016Z,102588.19
2017-12-20T19:19:59.717Z,102591.67
2017-12-20T19:22:29.015Z,102594.48
2017-12-20T19:24:57.477Z,102600.94
2017-12-20T19:27:26.069Z,102598.12
2017-12-20T19:29:54.487Z,102593.69
2017-12-20T19:32:23.707Z,102593.23
2017-12-20T19:34:53.254Z,102596.84
2017-12-20T19:37:23.373Z,102597.07
2017-12-20T19:39:51.786Z,102593.78
2017-12-20T19:42:21.773Z,102594.03
2017-12-20T19:44:50.257Z,102596.44
2017-12-20T19:47:18.601Z,102598.48
2017-12-20T19:49:47.007Z,102596.75
2017-12-20T19:52:15.389Z,102602.44
2017-12-20T19:54:43.771Z,102603.50
2017-12-20T19:57:12.245Z,102601.31
2017-12-20T19:59:41.369Z,102602.82
2017-12-20T20:02:14.613Z,102599.15
2017-12-20T20:04:43.257Z,102599.56
2017-12-20T20:07:11.681Z,102599.37
2017-12-20T20:09:41.015Z,102571.55
2017-12-20T20:12:11.093Z,102589.37
2017-12-20T20:14:40.117Z,102587.36
2017-12-20T20:17:09.221Z,102583.17
2017-12-20T20:19:37.574Z,102583.88
2017-12-20T20:22:06.277Z,102579.50
2017-12-20T20:24:36.642Z,102566.19
2017-12-20T20:27:05.810Z,102566.13
2017-12-20T20:29:34.841Z,102569.31
2017-12-20T20:32:05.922Z,102567.02
2017-12-20T20:34:35.175Z,102571.45
2017-12-20T20:37:04.473Z,102566.09
2017-12-20T20:39:33.074Z,102567.69
2017-12-20T20:42:02.729Z,102563.34
2017-12-20T20:44:34.289Z,102563.12
2017-12-20T20:47:03.753Z,102560.59
2017-12-20T20:49:33.173Z,102563.66
2017-12-20T20:52:02.660Z,102559.13
2017-12-20T20:54:32.921Z,102553.25
2017-12-20T20:57:02.318Z,102549.55
2017-12-20T20:59:31.525Z,102546.22
2017-12-20T21:01:59.939Z,102541.52
2017-12-20T21:04:28.449Z,102543.66
2017-12-20T21:06:59.293Z,102536.31
2017-12-20T21:09:28.631Z,102537.37
2017-12-20T21:11:59.212Z,102533.59
2017-12-20T21:14:28.204Z,102534.20
2017-12-20T21:16:56.716Z,102519.16
2017-12-20T21:19:25.132Z,102536.25
2017-12-20T21:21:53.600Z,102536.41
2017-12-20T21:24:22.772Z,102522.48
2017-12-20T21:26:52.580Z,102522.59
2017-12-20T21:29:21.024Z,102522.30
2017-12-20T21:31:49.672Z,102511.41
2017-12-20T21:34:20.564Z,102513.36
2017-12-20T21:36:48.948Z,102515.66
2017-12-20T21:39:17.411Z,102523.52
2017-12-20T21:41:45.927Z,102522.94
2017-12-20T21:44:14.523Z,102520.41
2017-12-20T21:46:43.358Z,102520.83
2017-12-20T21:49:11.785Z,102524.38
2017-12-20T21:51:41.096Z,102520.79
2017-12-20T21:54:09.656Z,102519.42
2017-12-20T21:56:39.960Z,102524.14
2017-12-20T21:59:08.648Z,102523.96
2017-12-20T22:01:38.012Z,102519.94
2017-12-20T22:04:06.538Z,102519.23
2017-12-20T22:06:36.911Z,102510.67
2017-12-20T22:09:06.504Z,102508.34
2017-12-20T22:11:38.132Z,102506.17
2017-12-20T22:14:08.188Z,102508.34
2017-12-20T22:16:36.816Z,102503.08
2017-12-20T22:19:05.383Z,102506.52
2017-12-20T22:21:33.768Z,102511.67
2017-12-20T22:24:02.107Z,102505.98
2017-12-20T22:26:31.291Z,102508.13
2017-12-20T22:29:01.386Z,102505.60
2017-12-20T22:31:29.769Z,102503.03
2017-12-20T22:33:58.151Z,102499.56
2017-12-20T22:36:26.516Z,102495.38
2017-12-20T22:38:54.903Z,102487.77
2017-12-20T22:41:23.376Z,102475.40
2017-12-20T22:43:51.715Z,102473.91
2017-12-20T22:46:20.071Z,102465.39
2017-12-20T22:48:49.212Z,102471.41
2017-12-20T22:51:17.563Z,102471.38
2017-12-20T22:53:45.927Z,102472.02
2017-12-20T22:56:14.312Z,102472.00
2017-12-20T22:58:42.663Z,102472.16
2017-12-20T23:01:11.063Z,102472.22
2017-12-20T23:03:39.391Z,102472.67
2017-12-20T23:06:07.783Z,102472.67
2017-12-20T23:08:36.140Z,102471.81
2017-12-20T23:11:04.491Z,102473.92
2017-12-20T23:13:32.859Z,102467.28
2017-12-20T23:16:01.203Z,102470.11
2017-12-20T23:18:29.759Z,102466.28
2017-12-20T23:20:58.132Z,102461.85
2017-12-20T23:23:27.436Z,102458.70
2017-12-20T23:25:55.794Z,102457.33
2017-12-20T23:28:24.996Z,102461.10
2017-12-20T23:30:53.369Z,102463.16
2017-12-20T23:33:21.804Z,102455.48
2017-12-20T23:35:50.143Z,102453.16
2017-12-20T23:38:18.523Z,102449.11
2017-12-20T23:40:46.911Z,102451.61
2017-12-20T23:43:15.283Z,102449.31
2017-12-20T23:45:43.623Z,102442.86
2017-12-20T23:48:12.015Z,102440.09
2017-12-20T23:50:40.387Z,102434.02
2017-12-20T23:53:08.763Z,102428.27
2017-12-20T23:55:37.135Z,102421.73
2017-12-20T23:58:05.459Z,102414.31
